Aeroporto :
LOGIN :

Iscrizione | Disclaimer

   EN    FR    IT 

 










Sommario :    VFR   VFR Marginale   IFR   IFR Intensivo   IFR Molto Intensivo
Visibilità : 
Base nubi : 
>= 8 km
>= 3000ft
5 / 8 km
1000 / 3000 ft
1500m / 5 km
500 / 1000 ft
800 / 1500m
200 / 500 ft
< 800m
< 200 ft
Simboli :   Temporali  Nebbia  Neve Forte  Precipitazioni Forti  Vento > 20 kt
SIGMETs :   Varie  Temporali  Ghiacco  Turbolenza  Onda orograficha  Ceneri Vulcaniche






- Altitudine del aeroporto : 81 ft
- Codice IATA : SCS


EGPM - Scatsta

ULTIMO METAR :
  • 090120Z AUTO VRB03KT 9999 FEW008/// BKN036/// 05/02 Q1025

METARs OBSOLETI :
  • 090050Z AUTO 34006KT 9999 BKN030/// 05/02 Q1025
  • 090020Z AUTO VRB02KT 9999 BKN034/// 04/02 Q1025
  • 082350Z AUTO 32005KT 280V340 9999 BKN028/// 04/01 Q1024
  • 082320Z AUTO VRB03KT 9999 BKN023/// OVC040/// 04/02 Q1024
  • 082250Z AUTO 22004KT 9999 SCT026/// SCT039/// 03/01 Q1024

Previsioni scadute.



MetMap, La meteo Aeronautica in un colpo d'occhio ! - Copyright ORBIFLY Dicembre 2007 - Disclaimer

ORBIFLY MET'MAP TEAM :

Programmazione e sviluppo : Alexandra Zaïnal
Concezione : Baudouin d'Aumeries
Aiuto per la programmazione : Marc-Olivier Méhu
Supporto tecnico e logistico : Manuel Goepfert
Aiuto per la traduzione : Arnaldo La Scala

Contatto : metmap@orbifly.com




FONTI E CREDITI :

   NOAA